Time;durP1;ratioP1;P1;durP2;ratioP2;P2;SDS_P1;SDS_P2;PMS_P1;PMS_P2;Temp;Humidity;BMP_temperature;BMP_pressure;BME280_temperature;BME280_humidity;BME280_pressure;Samples;Min_cycle;Max_cycle;Signal;HPM_P1;HPM_P2
2022/05/09 00:01:46;;;;;;;;;15.75;14.75;;;;;17.49;48.11;101848.91;5039256;28;50865;-52
2022/05/09 00:04:12;;;;;;;;;17.50;15.00;;;;;17.46;48.39;101850.75;5032808;28;45316;-51
2022/05/09 00:06:37;;;;;;;;;16.00;15.25;;;;;17.44;48.11;101851.72;5039569;28;45499;-52
2022/05/09 00:09:03;;;;;;;;;16.50;16.25;;;;;17.36;48.24;101849.38;5034016;28;50407;-52
2022/05/09 00:11:29;;;;;;;;;20.75;15.00;;;;;17.37;48.27;101859.06;5038137;28;46332;-53
2022/05/09 00:13:54;;;;;;;;;15.75;13.25;;;;;17.33;48.10;101860.06;5038135;28;59240;-52
2022/05/09 00:16:20;;;;;;;;;15.00;14.50;;;;;17.30;47.76;101856.69;5038218;28;45768;-52
2022/05/09 00:18:46;;;;;;;;;16.75;15.75;;;;;17.24;48.08;101855.97;5036085;28;45344;-52
2022/05/09 00:21:11;;;;;;;;;17.50;16.00;;;;;17.21;48.48;101856.13;5038748;28;47862;-50
2022/05/09 00:23:37;;;;;;;;;17.50;14.50;;;;;17.19;48.31;101855.31;5036071;28;45190;-51
2022/05/09 00:26:02;;;;;;;;;15.00;12.75;;;;;17.16;48.15;101844.84;5038853;28;50110;-52
2022/05/09 00:28:29;;;;;;;;;14.00;11.75;;;;;17.13;48.38;101846.75;5036793;28;45234;-53
2022/05/09 00:30:54;;;;;;;;;17.75;13.50;;;;;17.08;48.14;101841.59;5039955;28;46338;-53
2022/05/09 00:33:20;;;;;;;;;11.75;11.75;;;;;17.02;47.86;101842.69;5030508;28;53039;-53
2022/05/09 00:35:45;;;;;;;;;15.00;13.50;;;;;16.93;48.36;101843.03;5039413;28;45357;-52
2022/05/09 00:38:11;;;;;;;;;13.25;12.50;;;;;16.91;48.58;101851.94;5034033;28;62325;-53
2022/05/09 00:40:38;;;;;;;;;15.75;15.50;;;;;16.87;48.20;101846.78;5040951;28;45632;-53
2022/05/09 00:43:03;;;;;;;;;16.75;14.00;;;;;16.84;48.49;101848.66;5032895;28;45811;-52
2022/05/09 00:45:28;;;;;;;;;12.75;11.25;;;;;16.81;48.24;101846.94;5038222;28;45471;-52
2022/05/09 00:47:54;;;;;;;;;21.50;14.00;;;;;16.75;48.31;101848.94;5035000;28;63735;-53
2022/05/09 00:50:25;;;;;;;;;12.00;11.75;;;;;16.68;48.16;101841.22;5037650;28;46095;-52
2022/05/09 00:53:04;;;;;;;;;12.50;11.75;;;;;16.64;48.10;101854.59;5035579;28;45493;-51
2022/05/09 00:55:41;;;;;;;;;11.00;10.50;;;;;16.54;48.56;101843.47;5040280;28;45347;-51
2022/05/09 00:58:17;;;;;;;;;11.50;9.75;;;;;16.53;48.67;101852.31;5018513;28;45432;-51
2022/05/09 01:00:45;;;;;;;;;13.75;10.50;;;;;16.48;48.64;101847.22;5040861;28;45657;-53
2022/05/09 01:03:13;;;;;;;;;11.25;8.75;;;;;16.42;48.33;101839.47;5012577;28;45795;-51
2022/05/09 01:05:41;;;;;;;;;9.00;9.00;;;;;16.39;48.51;101841.34;5023288;28;45363;-49
2022/05/09 01:08:06;;;;;;;;;10.00;8.75;;;;;16.35;48.50;101848.53;5031416;28;45277;-52
2022/05/09 01:10:34;;;;;;;;;11.75;9.75;;;;;16.32;48.70;101843.34;5040577;28;46177;-52
2022/05/09 01:13:09;;;;;;;;;12.00;11.50;;;;;16.29;48.37;101839.03;5033265;28;45732;-50
2022/05/09 01:15:34;;;;;;;;;12.75;10.25;;;;;16.25;48.39;101837.38;5040796;28;45272;-50
2022/05/09 01:18:01;;;;;;;;;10.75;9.00;;;;;16.20;48.61;101841.97;5032786;28;45442;-52
2022/05/09 01:20:26;;;;;;;;;12.00;10.00;;;;;16.15;48.06;101843.91;5039161;28;45387;-52
2022/05/09 01:22:56;;;;;;;;;11.75;9.25;;;;;16.09;48.66;101841.44;5032955;28;63157;-49
2022/05/09 01:25:21;;;;;;;;;9.25;9.25;;;;;16.05;48.67;101843.31;5030813;28;45305;-54
2022/05/09 01:27:47;;;;;;;;;10.00;7.25;;;;;16.04;48.45;101844.25;5032769;28;66738;-51
2022/05/09 01:30:15;;;;;;;;;11.25;8.50;;;;;16.00;48.40;101845.25;5040277;28;46239;-55
2022/05/09 01:32:49;;;;;;;;;12.50;8.75;;;;;15.98;48.79;101843.56;5033720;28;45222;-49
2022/05/09 01:35:45;;;;;;;;;11.50;8.00;;;;;15.95;48.54;101849.81;5040274;28;45270;-53
2022/05/09 01:38:18;;;;;;;;;9.75;8.00;;;;;15.91;48.47;101841.13;5033542;28;45451;-51
2022/05/09 01:40:43;;;;;;;;;11.50;9.00;;;;;15.90;48.42;101846.44;5038875;28;45280;-52
2022/05/09 01:43:09;;;;;;;;;7.50;7.50;;;;;15.88;48.24;101841.25;5032547;28;69464;-52
2022/05/09 01:45:34;;;;;;;;;13.00;7.75;;;;;15.84;48.20;101839.59;5038310;28;60163;-51
2022/05/09 01:50:43;;;;;;;;;7.25;7.25;;;;;15.78;48.78;101834.50;5039168;28;45734;-53
2022/05/09 01:53:09;;;;;;;;;10.00;7.25;;;;;15.74;48.91;101835.47;5031894;28;69261;-51
2022/05/09 01:55:35;;;;;;;;;14.00;11.00;;;;;15.72;48.46;101827.63;5039211;28;45254;-53
2022/05/09 01:58:00;;;;;;;;;12.50;9.75;;;;;15.72;48.66;101834.66;5034767;28;45224;-51
2022/05/09 02:00:26;;;;;;;;;11.50;8.25;;;;;15.72;48.55;101826.72;5036584;28;69177;-53
2022/05/09 02:02:52;;;;;;;;;10.50;7.25;;;;;15.70;48.60;101828.56;5036935;28;45372;-53
2022/05/09 02:05:17;;;;;;;;;10.00;8.00;;;;;15.67;48.45;101831.28;5038551;28;45336;-52
2022/05/09 02:07:43;;;;;;;;;7.25;6.00;;;;;15.62;48.77;101826.16;5029164;28;45416;-49
2022/05/09 02:10:09;;;;;;;;;10.00;7.25;;;;;15.60;48.45;101835.03;5038139;28;46286;-51
2022/05/09 02:12:34;;;;;;;;;9.25;8.50;;;;;15.54;48.84;101834.28;5031440;28;45363;-52
2022/05/09 02:14:59;;;;;;;;;9.50;7.75;;;;;15.53;48.64;101832.59;5037425;28;60270;-52
2022/05/09 02:17:25;;;;;;;;;12.75;8.00;;;;;15.51;49.16;101834.41;5033123;28;45356;-53
2022/05/09 02:19:50;;;;;;;;;7.50;5.50;;;;;15.51;48.90;101822.97;5039082;28;48677;-53
2022/05/09 02:22:16;;;;;;;;;7.50;7.25;;;;;15.50;48.63;101826.53;5033421;28;63896;-52
2022/05/09 02:24:41;;;;;;;;;9.00;9.00;;;;;15.50;49.03;101835.31;5039588;28;45332;-49
2022/05/09 02:27:08;;;;;;;;;7.75;7.00;;;;;15.48;48.94;101831.84;5032868;28;45248;-52
2022/05/09 02:29:33;;;;;;;;;16.00;9.75;;;;;15.47;49.22;101829.25;5039449;28;45309;-52
2022/05/09 02:32:00;;;;;;;;;10.50;9.50;;;;;15.49;49.24;101827.44;5032217;28;66371;-54
2022/05/09 02:34:25;;;;;;;;;9.00;7.25;;;;;15.48;49.01;101821.31;5039294;28;45296;-53
2022/05/09 02:36:51;;;;;;;;;9.50;5.75;;;;;15.47;49.05;101824.84;5032202;28;67011;-52
2022/05/09 02:39:16;;;;;;;;;10.50;9.00;;;;;15.45;49.07;101824.03;5038725;28;62532;-53
2022/05/09 02:41:41;;;;;;;;;10.00;7.00;;;;;15.42;49.07;101826.75;5033195;28;67543;-54
2022/05/09 02:44:07;;;;;;;;;10.25;8.50;;;;;15.41;49.20;101826.81;5034568;28;45542;-52
2022/05/09 02:46:32;;;;;;;;;10.75;8.25;;;;;15.40;49.08;101825.09;5035157;28;45261;-53
2022/05/09 02:49:02;;;;;;;;;10.75;8.25;;;;;15.37;49.08;101826.91;5033726;28;45443;-54
2022/05/09 02:51:27;;;;;;;;;10.00;8.00;;;;;15.29;49.00;101818.34;5035729;28;45278;-53
2022/05/09 02:53:55;;;;;;;;;8.50;7.00;;;;;15.25;48.94;101829.91;5037722;28;45810;-50
2022/05/09 02:56:21;;;;;;;;;11.00;9.00;;;;;15.22;49.41;101834.41;5036795;28;45230;-51
2022/05/09 02:58:46;;;;;;;;;9.75;9.00;;;;;15.16;49.33;101830.19;5036484;28;46258;-51
2022/05/09 03:01:11;;;;;;;;;11.75;11.75;;;;;15.11;49.81;101822.38;5039749;28;68380;-53
2022/05/09 03:06:21;;;;;;;;;9.75;8.25;;;;;15.04;49.48;101819.97;5039294;28;45424;-53
2022/05/09 03:08:46;;;;;;;;;10.50;8.25;;;;;14.99;49.98;101820.09;5034974;28;45957;-53
2022/05/09 03:11:11;;;;;;;;;14.00;9.75;;;;;14.93;49.81;101815.88;5040718;28;45317;-50
2022/05/09 03:13:38;;;;;;;;;15.00;8.75;;;;;14.91;50.10;101814.16;5039353;28;45379;-52
2022/05/09 03:16:04;;;;;;;;;12.50;8.75;;;;;14.92;50.23;101808.84;5041135;28;45352;-50
2022/05/09 03:18:31;;;;;;;;;11.75;10.00;;;;;14.92;49.99;101814.13;5035254;28;45962;-52
2022/05/09 03:20:56;;;;;;;;;11.00;8.00;;;;;14.92;49.83;101810.63;5040669;28;46157;-52
2022/05/09 03:23:22;;;;;;;;;10.25;8.50;;;;;14.90;50.35;101810.66;5036309;28;60939;-53
2022/05/09 03:25:47;;;;;;;;;10.00;9.25;;;;;14.89;50.07;101814.22;5041681;28;51246;-54
2022/05/09 03:28:16;;;;;;;;;13.00;8.75;;;;;14.86;50.19;101809.03;5035873;28;46376;-52
2022/05/09 03:30:42;;;;;;;;;12.75;8.25;;;;;14.87;50.25;101813.38;5041033;28;45228;-51
2022/05/09 03:33:08;;;;;;;;;15.25;11.00;;;;;14.86;50.53;101813.44;5035720;28;45402;-54
2022/05/09 03:35:34;;;;;;;;;10.00;10.00;;;;;14.84;50.54;101817.88;5041867;28;45444;-52
2022/05/09 03:37:59;;;;;;;;;12.50;9.25;;;;;14.84;50.48;101815.25;5035535;28;46777;-52
2022/05/09 03:40:25;;;;;;;;;12.00;8.00;;;;;14.80;50.36;101809.19;5039910;28;67953;-50
2022/05/09 03:42:50;;;;;;;;;12.50;10.75;;;;;14.78;50.47;101805.72;5035523;28;45424;-52
2022/05/09 03:45:16;;;;;;;;;9.75;9.00;;;;;14.76;50.98;101807.56;5041296;28;59989;-54
2022/05/09 03:47:42;;;;;;;;;9.25;9.25;;;;;14.71;50.92;101815.56;5036048;28;45483;-52
2022/05/09 03:50:08;;;;;;;;;11.75;10.00;;;;;14.71;50.93;101812.06;5037800;28;45273;-53
2022/05/09 03:52:34;;;;;;;;;9.00;9.00;;;;;14.69;50.74;101809.47;5037511;28;45433;-53
2022/05/09 03:54:59;;;;;;;;;12.25;7.50;;;;;14.67;51.26;101808.66;5038448;28;65165;-52
2022/05/09 03:57:25;;;;;;;;;11.50;9.25;;;;;14.67;50.98;101813.06;5038096;28;46060;-54
2022/05/09 03:59:50;;;;;;;;;9.50;7.75;;;;;14.67;51.43;101808.66;5039616;28;55965;-53
2022/05/09 04:02:16;;;;;;;;;13.75;12.00;;;;;14.67;50.76;101813.06;5038408;28;57994;-52
2022/05/09 04:04:41;;;;;;;;;15.25;12.00;;;;;14.64;51.12;101813.16;5040727;28;45287;-52
2022/05/09 04:07:06;;;;;;;;;13.25;11.00;;;;;14.61;51.48;101814.13;5036332;28;70032;-51
2022/05/09 04:09:32;;;;;;;;;16.00;10.75;;;;;14.60;51.26;101815.84;5033683;28;62027;-51
2022/05/09 04:11:57;;;;;;;;;13.25;10.75;;;;;14.56;50.92;101814.19;5035921;28;46013;-51
2022/05/09 04:17:10;;;;;;;;;15.00;11.00;;;;;14.50;51.17;101813.47;5035809;28;45988;-53
2022/05/09 04:19:36;;;;;;;;;12.75;9.25;;;;;14.49;50.90;101817.88;5039757;28;45782;-52
2022/05/09 04:22:02;;;;;;;;;19.50;15.50;;;;;14.43;51.87;101812.78;5035359;28;45317;-52
2022/05/09 04:24:30;;;;;;;;;15.25;12.75;;;;;14.44;51.72;101818.00;5041156;28;45215;-52
2022/05/09 04:26:55;;;;;;;;;14.25;10.75;;;;;14.44;51.36;101812.72;5034607;28;46198;-52
2022/05/09 04:29:21;;;;;;;;;13.75;12.25;;;;;14.43;51.55;101813.66;5041167;28;45786;-52
2022/05/09 04:31:46;;;;;;;;;13.25;11.75;;;;;14.46;51.82;101814.47;5034860;28;59365;-52
2022/05/09 04:34:12;;;;;;;;;17.25;14.00;;;;;14.47;51.93;101816.22;5040073;28;57226;-54
2022/05/09 04:36:39;;;;;;;;;18.00;13.50;;;;;14.46;51.68;101810.06;5035692;28;70158;-53
2022/05/09 04:39:05;;;;;;;;;15.75;11.50;;;;;14.46;51.88;101809.19;5039748;28;45429;-52
2022/05/09 04:41:32;;;;;;;;;18.00;13.50;;;;;14.44;51.45;101809.25;5037289;28;45485;-52
2022/05/09 04:43:58;;;;;;;;;16.00;13.00;;;;;14.42;51.90;101811.06;5034803;28;46368;-50
2022/05/09 04:46:23;;;;;;;;;16.00;13.50;;;;;14.38;51.56;101818.16;5038043;28;45468;-52
2022/05/09 04:48:48;;;;;;;;;15.50;13.00;;;;;14.38;51.82;101820.81;5034830;28;66100;-52
2022/05/09 04:51:15;;;;;;;;;17.50;13.25;;;;;14.38;51.58;101812.03;5038728;28;45249;-52
2022/05/09 04:53:41;;;;;;;;;22.00;15.00;;;;;14.38;52.09;101818.16;5037016;28;45474;-53
2022/05/09 04:56:06;;;;;;;;;15.25;12.00;;;;;14.37;52.05;101813.78;5038743;28;45711;-54
2022/05/09 04:58:32;;;;;;;;;13.50;12.75;;;;;14.39;51.81;101819.03;5039384;28;45273;-53
2022/05/09 05:00:57;;;;;;;;;16.25;14.00;;;;;14.38;51.80;101815.53;5039560;28;45340;-54
2022/05/09 05:03:23;;;;;;;;;16.00;12.00;;;;;14.36;51.89;101801.53;5031901;28;45323;-52
2022/05/09 05:05:48;;;;;;;;;19.00;13.50;;;;;14.40;51.96;101803.19;5040011;28;47047;-53
2022/05/09 05:08:14;;;;;;;;;16.50;12.25;;;;;14.42;52.28;101814.53;5032318;28;45359;-52
2022/05/09 05:10:39;;;;;;;;;16.25;13.00;;;;;14.43;51.72;101807.53;5040775;28;45433;-53
2022/05/09 05:13:05;;;;;;;;;17.00;14.00;;;;;14.43;51.82;101812.78;5030858;28;67455;-53
2022/05/09 05:15:30;;;;;;;;;16.50;13.50;;;;;14.41;51.51;101817.22;5040615;28;45273;-54
2022/05/09 05:17:56;;;;;;;;;12.25;9.25;;;;;14.41;52.14;101818.09;5033796;28;45393;-54
2022/05/09 05:20:21;;;;;;;;;22.25;17.75;;;;;14.42;51.88;101814.53;5039468;28;52163;-53
2022/05/09 05:22:47;;;;;;;;;18.50;16.75;;;;;14.45;51.56;101821.53;5033820;28;45305;-53
2022/05/09 05:25:16;;;;;;;;;23.75;17.75;;;;;14.48;51.70;101821.41;5039047;28;46041;-51
2022/05/09 05:27:42;;;;;;;;;16.50;13.00;;;;;14.52;51.92;101823.09;5033623;28;45597;-51
2022/05/09 05:30:09;;;;;;;;;19.00;16.00;;;;;14.55;52.01;101824.75;5039828;28;59162;-53
2022/05/09 05:32:36;;;;;;;;;19.50;15.00;;;;;14.55;52.01;101822.13;5033631;28;45380;-54
2022/05/09 05:35:06;;;;;;;;;21.25;16.00;;;;;14.57;51.33;101830.84;5039829;28;46970;-53
2022/05/09 05:37:33;;;;;;;;;18.50;14.00;;;;;14.57;51.72;101825.56;5033581;28;45364;-54
2022/05/09 05:39:58;;;;;;;;;14.50;11.00;;;;;14.58;51.53;101824.72;5040308;28;45301;-53
2022/05/09 05:42:24;;;;;;;;;17.00;14.00;;;;;14.60;51.84;101823.75;5033757;28;45381;-53
2022/05/09 05:44:49;;;;;;;;;31.75;27.00;;;;;14.65;51.93;101822.78;5036305;28;45393;-54
2022/05/09 05:47:16;;;;;;;;;24.50;16.75;;;;;14.70;52.06;101829.66;5035132;28;45426;-54
2022/05/09 05:49:42;;;;;;;;;27.75;16.50;;;;;14.72;52.00;101827.84;5037033;28;45265;-54
2022/05/09 05:52:07;;;;;;;;;16.75;15.25;;;;;14.71;51.69;101826.09;5032473;28;45414;-54
2022/05/09 05:54:35;;;;;;;;;17.25;12.50;;;;;14.76;51.58;101818.94;5032282;28;46117;-54
2022/05/09 05:57:01;;;;;;;;;18.75;15.00;;;;;14.80;51.84;101825.88;5036760;28;45956;-49
2022/05/09 05:59:27;;;;;;;;;16.50;12.25;;;;;14.85;51.76;101822.25;5039013;28;45309;-53
2022/05/09 06:01:52;;;;;;;;;18.50;15.25;;;;;14.87;51.47;101826.56;5037149;28;45427;-54
2022/05/09 06:04:19;;;;;;;;;26.75;17.50;;;;;14.91;51.90;101832.59;5031042;28;46410;-55
2022/05/09 06:06:44;;;;;;;;;19.50;16.50;;;;;14.91;51.13;101832.59;5037628;28;45823;-51
2022/05/09 06:09:11;;;;;;;;;47.50;36.00;;;;;14.91;51.21;101833.50;5031878;28;45850;-53
2022/05/09 06:11:37;;;;;;;;;18.25;16.75;;;;;14.91;50.97;101836.13;5037001;28;45447;-53
2022/05/09 06:14:04;;;;;;;;;14.75;13.75;;;;;14.89;51.00;101835.31;5032470;28;45443;-53
2022/05/09 06:16:30;;;;;;;;;17.75;13.00;;;;;14.91;51.40;101841.41;5036477;28;45335;-54
2022/05/09 06:18:55;;;;;;;;;18.50;14.00;;;;;14.91;51.18;101844.03;5025732;28;53519;-53
2022/05/09 06:21:22;;;;;;;;;20.25;14.50;;;;;14.95;50.92;101842.19;5035924;28;45222;-51
2022/05/09 06:23:48;;;;;;;;;20.50;15.00;;;;;14.96;51.24;101841.25;5035550;28;46344;-53
2022/05/09 06:26:14;;;;;;;;;18.25;17.50;;;;;14.96;51.05;101838.63;5037293;28;45367;-53
2022/05/09 06:28:40;;;;;;;;;19.50;15.75;;;;;14.95;50.74;101842.19;5034992;28;45399;-51
2022/05/09 06:31:06;;;;;;;;;21.75;14.75;;;;;14.95;51.23;101843.03;5036788;28;45297;-53
2022/05/09 06:33:31;;;;;;;;;16.75;13.00;;;;;14.98;51.13;101842.09;5037538;28;46050;-54
2022/05/09 06:35:57;;;;;;;;;17.00;13.75;;;;;15.00;50.98;101846.41;5040725;28;66261;-51
2022/05/09 06:38:23;;;;;;;;;20.00;15.25;;;;;14.97;51.15;101833.31;5018484;28;45376;-52
2022/05/09 06:40:48;;;;;;;;;19.50;16.50;;;;;15.07;50.78;101847.13;5041444;28;45281;-53
2022/05/09 06:43:13;;;;;;;;;19.75;14.00;;;;;15.12;51.17;101846.97;5035016;28;45263;-51
2022/05/09 06:45:39;;;;;;;;;16.75;14.75;;;;;15.17;50.86;101852.97;5041941;28;45318;-52
2022/05/09 06:48:05;;;;;;;;;21.00;15.50;;;;;15.24;50.39;101853.69;5037131;28;45598;-53
2022/05/09 06:50:32;;;;;;;;;20.00;15.00;;;;;15.25;50.55;101855.41;5041679;28;45558;-52
2022/05/09 06:52:58;;;;;;;;;21.25;14.50;;;;;15.29;50.79;101860.53;5039083;28;46277;-53
2022/05/09 06:55:23;;;;;;;;;17.50;13.25;;;;;15.36;50.95;101870.00;5042007;28;45327;-53
2022/05/09 06:57:49;;;;;;;;;16.50;15.25;;;;;15.45;50.65;101868.03;5031369;28;45774;-53
2022/05/09 07:00:20;;;;;;;;;16.50;15.00;;;;;15.54;50.70;101859.81;5041933;28;45671;-53
2022/05/09 07:02:45;;;;;;;;;20.25;17.50;;;;;15.62;50.51;101860.47;5032743;28;45348;-52
2022/05/09 07:05:11;;;;;;;;;23.50;17.25;;;;;15.69;50.58;101847.97;5040718;28;45245;-51
2022/05/09 07:07:37;;;;;;;;;21.25;16.75;;;;;15.76;50.52;101852.19;5034104;28;45891;-51
2022/05/09 07:10:03;;;;;;;;;20.75;17.25;;;;;15.83;50.04;101856.34;5041696;28;45593;-52
2022/05/09 07:12:29;;;;;;;;;20.75;15.75;;;;;15.88;50.29;101861.47;5036456;28;46381;-53
2022/05/09 07:14:54;;;;;;;;;19.25;17.00;;;;;15.94;49.96;101858.66;5041773;28;61219;-52
2022/05/09 07:17:20;;;;;;;;;23.75;17.00;;;;;16.00;49.77;101871.66;5030390;28;45422;-53
2022/05/09 07:19:45;;;;;;;;;17.75;15.75;;;;;16.06;49.93;101863.53;5041276;28;45288;-52
2022/05/09 07:22:11;;;;;;;;;19.75;18.25;;;;;16.10;49.83;101859.88;5035807;28;45997;-53
2022/05/09 07:24:36;;;;;;;;;26.25;17.75;;;;;16.17;49.67;101863.19;5042181;28;45403;-52
2022/05/09 07:27:02;;;;;;;;;24.25;16.50;;;;;16.26;49.69;101864.69;5035040;28;61130;-53
2022/05/09 07:29:27;;;;;;;;;22.25;15.00;;;;;16.33;49.29;101853.00;5042119;28;45311;-52
2022/05/09 07:31:52;;;;;;;;;19.25;15.00;;;;;16.41;49.50;101856.22;5037923;28;64584;-54
2022/05/09 07:34:18;;;;;;;;;23.00;18.50;;;;;16.50;49.06;101857.69;5039622;28;65790;-51
2022/05/09 07:36:43;;;;;;;;;18.50;15.75;;;;;16.58;49.22;101855.66;5036861;28;45458;-53
2022/05/09 07:39:09;;;;;;;;;18.25;14.50;;;;;16.67;49.03;101859.78;5038284;28;63758;-53
2022/05/09 07:41:34;;;;;;;;;20.50;17.00;;;;;16.75;49.05;101852.47;5037549;28;46220;-52
2022/05/09 07:43:59;;;;;;;;;21.50;17.00;;;;;16.84;48.90;101860.09;5033515;28;62278;-53
2022/05/09 07:46:25;;;;;;;;;22.50;21.50;;;;;16.89;48.71;101858.16;5039140;28;45407;-54
2022/05/09 07:48:52;;;;;;;;;20.75;18.25;;;;;16.97;48.57;101847.28;5035922;28;45524;-51
2022/05/09 07:51:18;;;;;;;;;20.50;16.50;;;;;17.06;48.40;101851.38;5039924;28;46070;-52
2022/05/09 07:53:44;;;;;;;;;21.00;17.25;;;;;17.12;48.18;101843.22;5037937;28;45462;-53
2022/05/09 07:56:09;;;;;;;;;22.50;18.00;;;;;17.25;48.39;101846.28;5039698;28;45780;-52
2022/05/09 07:58:35;;;;;;;;;20.00;17.00;;;;;17.35;48.25;101855.63;5039685;28;45514;-52
2022/05/09 08:01:02;;;;;;;;;18.25;15.75;;;;;17.44;47.75;101847.31;5039882;28;46227;-51
2022/05/09 08:03:31;;;;;;;;;21.00;19.25;;;;;17.54;48.00;101847.81;5033125;28;45711;-53
2022/05/09 08:05:59;;;;;;;;;19.50;16.75;;;;;17.64;47.87;101845.69;5039287;28;45397;-52
2022/05/09 08:08:25;;;;;;;;;20.50;16.50;;;;;17.71;47.68;101847.19;5033514;28;45338;-51
2022/05/09 08:10:50;;;;;;;;;21.50;18.25;;;;;17.77;47.69;101849.56;5053624;28;46192;-50
2022/05/09 08:13:17;;;;;;;;;21.75;18.00;;;;;17.84;47.47;101847.53;5036059;28;45393;-53
2022/05/09 08:15:44;;;;;;;;;30.50;19.75;;;;;17.91;47.37;101854.34;5040688;28;45281;-53
2022/05/09 08:18:10;;;;;;;;;22.00;18.25;;;;;17.97;47.37;101850.59;5031517;28;46254;-53
2022/05/09 08:20:37;;;;;;;;;19.00;14.75;;;;;18.06;47.25;101849.34;5041073;28;46182;-51
2022/05/09 08:23:07;;;;;;;;;23.75;18.75;;;;;18.13;47.24;101850.84;5034476;28;45419;-51
2022/05/09 08:25:36;;;;;;;;;29.50;25.00;;;;;18.21;47.02;101851.41;5041754;28;45238;-53
2022/05/09 08:28:02;;;;;;;;;29.75;25.50;;;;;18.27;46.88;101853.78;5034518;28;45281;-53
2022/05/09 08:30:35;;;;;;;;;24.75;20.25;;;;;18.34;47.06;101851.75;5041399;28;46118;-52
2022/05/09 08:33:01;;;;;;;;;20.25;19.50;;;;;18.41;47.09;101847.91;5034696;28;45730;-53
2022/05/09 08:35:27;;;;;;;;;25.00;21.25;;;;;18.52;47.01;101852.75;5041273;28;45232;-52
2022/05/09 08:37:52;;;;;;;;;20.75;18.00;;;;;18.59;46.76;101856.84;5034563;28;45486;-53
2022/05/09 08:40:20;;;;;;;;;29.00;21.00;;;;;18.66;46.88;101847.75;5040134;28;71199;-53
2022/05/09 08:42:48;;;;;;;;;24.50;18.75;;;;;18.75;46.48;101859.72;5000175;28;45880;-53
2022/05/09 08:45:32;;;;;;;;;20.25;17.50;;;;;18.84;46.59;101855.84;5023426;28;45421;-53
2022/05/09 08:48:16;;;;;;;;;22.50;16.25;;;;;18.92;46.45;101841.31;5014466;28;45305;-53
2022/05/09 08:50:51;;;;;;;;;25.00;19.50;;;;;19.07;46.35;101849.50;5039283;28;46444;-52
2022/05/09 08:53:22;;;;;;;;;25.50;20.25;;;;;19.21;46.05;101851.53;5032886;28;45808;-53
2022/05/09 08:55:48;;;;;;;;;20.00;18.50;;;;;19.31;45.78;101847.53;5040106;28;45583;-54
2022/05/09 08:58:40;;;;;;;;;22.50;19.25;;;;;19.41;45.88;101850.66;5051986;28;45439;-54
2022/05/09 09:01:16;;;;;;;;;19.25;17.75;;;;;19.51;45.60;101842.19;5038588;28;46564;-53
2022/05/09 09:03:46;;;;;;;;;26.50;21.25;;;;;19.63;45.85;101835.41;5031482;28;45210;-53
2022/05/09 09:06:25;;;;;;;;;28.75;23.75;;;;;19.77;45.38;101833.94;5021147;28;45547;-52
2022/05/09 09:09:08;;;;;;;;;35.75;24.00;;;;;19.94;45.07;101836.63;5012899;28;45309;-54
2022/05/09 09:12:07;;;;;;;;;43.00;30.25;;;;;20.15;44.74;101844.47;5034163;28;46343;-52
2022/05/09 09:14:51;;;;;;;;;32.75;27.50;;;;;20.42;44.72;101839.59;5033722;28;47643;-54
2022/05/09 09:17:42;;;;;;;;;44.25;33.00;;;;;20.80;44.07;101844.75;5034074;28;45467;-54
2022/05/09 09:20:23;;;;;;;;;43.25;34.25;;;;;21.24;43.59;101836.19;5029136;28;45295;-50
2022/05/09 09:23:16;;;;;;;;;47.00;35.25;;;;;21.73;42.76;101825.50;5032355;28;47201;-52
2022/05/09 09:25:49;;;;;;;;;46.25;33.75;;;;;22.24;42.22;101825.25;5034864;28;45262;-53
2022/05/09 09:28:16;;;;;;;;;35.00;26.50;;;;;22.73;41.79;101826.81;5030490;28;45271;-54
2022/05/09 09:30:42;;;;;;;;;33.50;28.50;;;;;23.22;40.82;101826.47;5034561;28;45512;-54
2022/05/09 09:33:09;;;;;;;;;29.50;25.50;;;;;23.71;40.38;101825.16;5033666;28;46108;-53
2022/05/09 09:35:40;;;;;;;;;27.00;22.25;;;;;24.24;39.44;101825.22;5040067;28;45311;-52
2022/05/09 09:38:26;;;;;;;;;27.25;21.25;;;;;24.88;38.24;101822.66;5033866;28;45546;-52
2022/05/09 09:40:51;;;;;;;;;24.75;20.25;;;;;25.47;37.87;101823.88;5038925;28;45618;-52
2022/05/09 09:43:17;;;;;;;;;18.75;18.50;;;;;26.13;36.74;101827.03;5031267;28;47055;-53
2022/05/09 09:45:46;;;;;;;;;18.25;16.00;;;;;26.94;35.46;101824.44;5038895;28;45875;-51
2022/05/09 09:48:17;;;;;;;;;22.75;17.00;;;;;28.35;34.70;101830.84;5032858;28;45471;-54
2022/05/09 09:51:03;;;;;;;;;16.75;15.00;;;;;30.38;32.51;101822.69;5026665;28;45462;-53
2022/05/09 09:53:38;;;;;;;;;19.75;15.75;;;;;31.94;31.96;101830.94;5032598;28;48176;-54
2022/05/09 09:56:05;;;;;;;;;17.75;16.00;;;;;33.22;30.03;101819.59;5037873;28;45311;-53
2022/05/09 09:58:30;;;;;;;;;21.00;19.25;;;;;34.33;28.55;101818.41;5038386;28;45477;-53
2022/05/09 10:01:11;;;;;;;;;18.00;16.75;;;;;35.31;26.47;101814.59;5039013;28;45363;-53
2022/05/09 10:03:42;;;;;;;;;25.25;17.50;;;;;36.18;25.64;101808.84;5028547;28;46206;-53
2022/05/09 10:06:14;;;;;;;;;23.25;17.50;;;;;37.02;25.29;101813.22;5037452;28;45186;-54
2022/05/09 10:08:40;;;;;;;;;19.75;14.00;;;;;37.67;24.70;101813.38;5027395;28;45416;-54
2022/05/09 10:11:24;;;;;;;;;22.25;18.50;;;;;38.16;24.90;101809.81;5036717;28;45439;-51
2022/05/09 10:13:52;;;;;;;;;15.00;15.00;;;;;38.71;21.89;101807.28;5035962;28;45318;-50
2022/05/09 10:16:41;;;;;;;;;18.50;15.50;;;;;39.35;22.24;101803.34;5019310;28;47709;-53
2022/05/09 10:19:10;;;;;;;;;23.25;18.00;;;;;40.19;21.07;101795.63;5033416;28;46060;-52
2022/05/09 10:24:48;;;;;;;;;16.00;13.50;;;;;41.38;20.24;101788.06;5036114;28;45662;-53
2022/05/09 10:27:25;;;;;;;;;18.50;16.25;;;;;41.97;19.52;101787.81;5032906;28;45443;-52
2022/05/09 10:29:54;;;;;;;;;16.25;15.00;;;;;42.24;19.31;101789.28;5039685;28;45515;-52
2022/05/09 10:32:23;;;;;;;;;19.00;15.00;;;;;42.46;18.39;101783.31;5029773;28;45935;-53
2022/05/09 10:34:57;;;;;;;;;18.25;14.25;;;;;42.80;17.77;101787.41;5039196;28;46381;-51
2022/05/09 10:37:28;;;;;;;;;19.25;14.25;;;;;43.19;17.97;101782.44;5032834;28;45812;-52
2022/05/09 10:40:04;;;;;;;;;23.25;19.25;;;;;43.60;17.56;101786.28;5038279;28;45451;-52
2022/05/09 10:42:34;;;;;;;;;17.50;14.25;;;;;43.53;18.51;101779.22;5027811;28;45510;-49
2022/05/09 10:45:17;;;;;;;;;15.50;13.50;;;;;43.39;17.41;101784.09;5030605;28;46001;-49
2022/05/09 10:48:10;;;;;;;;;19.75;16.25;;;;;43.68;16.65;101781.50;5031660;28;45778;-51
2022/05/09 10:50:57;;;;;;;;;18.25;17.00;;;;;43.90;17.25;101784.53;5036676;28;45240;-51
2022/05/09 10:53:31;;;;;;;;;17.00;16.00;;;;;43.78;16.46;101774.34;5032994;28;45388;-51
2022/05/09 10:56:25;;;;;;;;;15.75;14.50;;;;;43.70;16.46;101777.41;5038041;28;45642;-52
2022/05/09 10:59:11;;;;;;;;;16.50;15.50;;;;;43.45;17.39;101774.84;5048998;28;45649;-50
2022/05/09 11:01:41;;;;;;;;;15.50;13.75;;;;;43.14;16.61;101765.78;5031660;28;45241;-52
2022/05/09 11:04:06;;;;;;;;;22.00;19.00;;;;;43.18;16.32;101761.47;5036875;28;45336;-52
2022/05/09 11:06:46;;;;;;;;;19.25;17.50;;;;;43.23;15.96;101761.59;5033596;28;71945;-52
2022/05/09 11:09:30;;;;;;;;;20.75;17.75;;;;;43.04;15.71;101757.22;5030742;28;45243;-51
2022/05/09 11:12:19;;;;;;;;;17.25;15.50;;;;;42.75;14.70;101756.09;5019245;28;45253;-51
2022/05/09 11:14:53;;;;;;;;;18.75;16.75;;;;;42.55;16.21;101757.19;5037999;28;45478;-51
2022/05/09 11:17:48;;;;;;;;;22.00;18.00;;;;;42.45;15.53;101760.47;5033276;28;46541;-51
2022/05/09 11:20:38;;;;;;;;;16.00;15.75;;;;;42.38;16.34;101759.72;5031949;28;45498;-50
2022/05/09 11:23:34;;;;;;;;;21.00;17.75;;;;;42.57;15.62;101754.22;5035805;28;45507;-51
2022/05/09 11:26:24;;;;;;;;;18.00;16.50;;;;;42.55;15.89;101754.44;5039491;28;45510;-51
2022/05/09 11:28:53;;;;;;;;;21.00;16.25;;;;;42.54;15.73;101749.19;5034829;28;46394;-51
2022/05/09 11:31:33;;;;;;;;;20.25;18.25;;;;;42.62;15.25;101755.22;5040397;28;45643;-49